Seoul E Air Base, South Korea

4:47 AM KST on August 01, 2014 (GMT +0900)
Seoul Air Base (RKSM) Elev 66 ft | 37.45 °N, 127.11 °E | Change Station

Current weather conditions updated 47 minutes ago

Clear
Clear
73 °F
Feels Like 73 °F
N
1
Wind Variable Wind from SSE

Today is forecast to be nearly the same temperature as yesterday.

Today
High -- | Low -- °F
--% Chance of Precip.
Yesterday
High -- | Low -- °F
Precip. -- in
5:35 AM 7:39 PM
Waxing Crescent, 20% visible
Pressure 29.82 in
Visibility 6.2 miles
Clouds Clear
Dew Point 73 °F
Humidity 100%
Rainfall 0.00 in
Snow Depth Not available.
UV 0 out of 12
Pollen Not available.
Air Quality Not available.
Flu Activity Not available.
METAR RKSM 311900Z 15001KT 9999 SKC 23/23 A2982

More Conditions Fewer Conditions

Pressure 29.82 in
Visibility 6.2 miles
Clouds Clear
Dew Point 73 °F
Humidity 100%
Rainfall 0.00 in
Snow Depth Not available.
UV 0 out of 12
Pollen Not available.
Air Quality Not available.
Flu Activity Not available.
METAR RKSM 311900Z 15001KT 9999 SKC 23/23 A2982

More Conditions Fewer Conditions

10-Day Weather Forecast

Almanac

Astronomy

Aug. 01, 2014 Rise Set
Actual Time 5:35 AM KST 7:39 PM KST
Civil Twilight 5:06 AM KST 8:08 PM KST
Nautical Twilight 4:30 AM KST 8:44 PM KST
Astronomical Twilight 3:52 AM KST 9:22 PM KST
Moon 10:17 AM KST (8/1) 10:12 PM KST (8/1)
Length of Visible Light 15h 02m
Length of Day
14h 04m
Tomorrow will be 1m 48s shorter.
Waxing Crescent, 20% of the Moon is Illuminated
Jul 31
Waxing Crescent
Aug 3
First Quarter
Aug 10
Full
Aug 17
Last Quarter
Aug 25
New

Yesterday's Extremes

Country Highs Country Lows

Community

WunderPhotos

Upload Photos

1,739,438 photos uploaded!

Nearby

Snow Depth

Not available.

Earthquake Activity

City Distance Mag. Time & Date
No recent earthquake activity has been reported nearby.
Minimum magnitude displayed is 2.5.

Coastal Water Temperatures

Place Temperature
No Stations Reporting

Nearby Weather Stations

Station Location Temp. Heat Index Dew Point Humidity Wind Precip. Elev Updated Type
Yongin-Si 74.3 °F 71 °F 74 °F 99% ESE  at  1.0 mph 0.00 in / hr 312 ft 4:33 AM KST Normal
Bucheon3 78.6 °F 82 °F 75 °F 88% ESE  at  2.0 mph 0.00 in / hr 115 ft 4:35 AM KST Normal

Show More Stations Show Fewer Stations